sensor_id;sensor_type;location;lat;lon;timestamp;temperature;humidity
11067;DHT22;29763;50.904;5.530;2023-02-20T00:01:29;4.40;99.90
11067;DHT22;29763;50.904;5.530;2023-02-20T00:03:55;4.30;99.90
11067;DHT22;29763;50.904;5.530;2023-02-20T00:06:21;4.30;99.90
11067;DHT22;29763;50.904;5.530;2023-02-20T00:08:48;4.40;99.90
11067;DHT22;29763;50.904;5.530;2023-02-20T00:11:29;4.40;99.90
11067;DHT22;29763;50.904;5.530;2023-02-20T00:13:56;4.50;99.90
11067;DHT22;29763;50.904;5.530;2023-02-20T00:16:23;4.50;99.90
11067;DHT22;29763;50.904;5.530;2023-02-20T00:18:49;4.50;99.90
11067;DHT22;29763;50.904;5.530;2023-02-20T00:21:16;4.60;99.90
11067;DHT22;29763;50.904;5.530;2023-02-20T00:23:42;4.60;99.90
11067;DHT22;29763;50.904;5.530;2023-02-20T00:26:13;4.70;99.90
11067;DHT22;29763;50.904;5.530;2023-02-20T00:28:41;4.80;99.90
11067;DHT22;29763;50.904;5.530;2023-02-20T00:31:11;4.90;99.90
11067;DHT22;29763;50.904;5.530;2023-02-20T00:33:37;4.90;99.90
11067;DHT22;29763;50.904;5.530;2023-02-20T00:36:03;5.00;99.90
11067;DHT22;29763;50.904;5.530;2023-02-20T00:38:33;5.10;99.90
11067;DHT22;29763;50.904;5.530;2023-02-20T00:41:00;5.10;99.90
11067;DHT22;29763;50.904;5.530;2023-02-20T00:43:33;5.10;99.90
11067;DHT22;29763;50.904;5.530;2023-02-20T00:46:01;5.20;99.90
11067;DHT22;29763;50.904;5.530;2023-02-20T00:48:27;5.30;99.90
11067;DHT22;29763;50.904;5.530;2023-02-20T00:50:53;5.30;99.90
11067;DHT22;29763;50.904;5.530;2023-02-20T00:53:19;5.40;99.90
11067;DHT22;29763;50.904;5.530;2023-02-20T00:55:44;5.40;99.90
11067;DHT22;29763;50.904;5.530;2023-02-20T00:58:16;5.50;99.90
11067;DHT22;29763;50.904;5.530;2023-02-20T01:00:42;5.40;99.90
11067;DHT22;29763;50.904;5.530;2023-02-20T01:03:07;5.40;99.90
11067;DHT22;29763;50.904;5.530;2023-02-20T01:05:33;5.50;99.90
11067;DHT22;29763;50.904;5.530;2023-02-20T01:08:00;5.40;99.90
11067;DHT22;29763;50.904;5.530;2023-02-20T01:10:25;5.50;99.90
11067;DHT22;29763;50.904;5.530;2023-02-20T01:12:51;5.50;99.90
11067;DHT22;29763;50.904;5.530;2023-02-20T01:15:17;5.60;99.90
11067;DHT22;29763;50.904;5.530;2023-02-20T01:17:45;5.60;99.90
11067;DHT22;29763;50.904;5.530;2023-02-20T01:20:20;5.70;99.90
11067;DHT22;29763;50.904;5.530;2023-02-20T01:22:47;5.70;99.90
11067;DHT22;29763;50.904;5.530;2023-02-20T01:25:18;5.70;99.90
11067;DHT22;29763;50.904;5.530;2023-02-20T01:27:46;5.70;99.90
11067;DHT22;29763;50.904;5.530;2023-02-20T01:30:16;5.70;99.90
11067;DHT22;29763;50.904;5.530;2023-02-20T01:32:42;5.70;99.90
11067;DHT22;29763;50.904;5.530;2023-02-20T01:35:09;5.70;99.90
11067;DHT22;29763;50.904;5.530;2023-02-20T01:37:41;5.70;99.90
11067;DHT22;29763;50.904;5.530;2023-02-20T01:40:18;5.70;99.90
11067;DHT22;29763;50.904;5.530;2023-02-20T01:42:48;5.70;99.90
11067;DHT22;29763;50.904;5.530;2023-02-20T01:47:56;5.70;99.90
11067;DHT22;29763;50.904;5.530;2023-02-20T01:50:34;5.70;99.90
11067;DHT22;29763;50.904;5.530;2023-02-20T01:53:05;5.60;99.90
11067;DHT22;29763;50.904;5.530;2023-02-20T01:55:38;5.70;99.90
11067;DHT22;29763;50.904;5.530;2023-02-20T01:58:09;5.60;99.90
11067;DHT22;29763;50.904;5.530;2023-02-20T02:00:37;5.60;99.90
11067;DHT22;29763;50.904;5.530;2023-02-20T02:03:10;5.60;99.90
11067;DHT22;29763;50.904;5.530;2023-02-20T02:05:39;5.60;99.90
11067;DHT22;29763;50.904;5.530;2023-02-20T02:08:09;5.50;99.90
11067;DHT22;29763;50.904;5.530;2023-02-20T02:10:43;5.50;99.90
11067;DHT22;29763;50.904;5.530;2023-02-20T02:13:11;5.50;99.90
11067;DHT22;29763;50.904;5.530;2023-02-20T02:15:37;5.40;99.90
11067;DHT22;29763;50.904;5.530;2023-02-20T02:38:25;5.40;99.90
11067;DHT22;29763;50.904;5.530;2023-02-20T02:43:51;5.40;99.90
11067;DHT22;29763;50.904;5.530;2023-02-20T02:46:27;5.20;99.90
11067;DHT22;29763;50.904;5.530;2023-02-20T02:49:20;5.20;99.90
11067;DHT22;29763;50.904;5.530;2023-02-20T02:51:54;5.10;99.90
11067;DHT22;29763;50.904;5.530;2023-02-20T02:54:23;5.10;99.90
11067;DHT22;29763;50.904;5.530;2023-02-20T02:57:22;5.10;99.90
11067;DHT22;29763;50.904;5.530;2023-02-20T02:59:56;5.00;99.90
11067;DHT22;29763;50.904;5.530;2023-02-20T03:02:26;5.00;99.90
11067;DHT22;29763;50.904;5.530;2023-02-20T03:04:55;4.90;99.90
11067;DHT22;29763;50.904;5.530;2023-02-20T03:07:23;4.90;99.90
11067;DHT22;29763;50.904;5.530;2023-02-20T03:09:56;4.90;99.90
11067;DHT22;29763;50.904;5.530;2023-02-20T03:12:25;5.00;99.90
11067;DHT22;29763;50.904;5.530;2023-02-20T03:15:05;4.90;99.90
11067;DHT22;29763;50.904;5.530;2023-02-20T03:20:48;4.90;99.90
11067;DHT22;29763;50.904;5.530;2023-02-20T03:23:30;4.90;99.90
11067;DHT22;29763;50.904;5.530;2023-02-20T03:26:08;4.90;99.90
11067;DHT22;29763;50.904;5.530;2023-02-20T03:28:40;4.90;99.90
11067;DHT22;29763;50.904;5.530;2023-02-20T03:31:13;4.90;99.90
11067;DHT22;29763;50.904;5.530;2023-02-20T03:34:00;4.90;99.90
11067;DHT22;29763;50.904;5.530;2023-02-20T03:37:03;4.90;99.90
11067;DHT22;29763;50.904;5.530;2023-02-20T03:40:13;5.00;99.90
11067;DHT22;29763;50.904;5.530;2023-02-20T03:43:01;5.00;99.90
11067;DHT22;29763;50.904;5.530;2023-02-20T03:45:47;5.00;99.90
11067;DHT22;29763;50.904;5.530;2023-02-20T03:51:04;5.10;99.90
11067;DHT22;29763;50.904;5.530;2023-02-20T03:53:31;5.10;99.90
11067;DHT22;29763;50.904;5.530;2023-02-20T03:56:01;5.20;99.90
11067;DHT22;29763;50.904;5.530;2023-02-20T03:58:32;5.30;99.90
11067;DHT22;29763;50.904;5.530;2023-02-20T04:01:02;5.40;99.90
11067;DHT22;29763;50.904;5.530;2023-02-20T04:03:35;5.50;99.90
11067;DHT22;29763;50.904;5.530;2023-02-20T04:06:08;5.60;99.90
11067;DHT22;29763;50.904;5.530;2023-02-20T04:08:38;5.60;99.90
11067;DHT22;29763;50.904;5.530;2023-02-20T04:11:18;5.70;99.90
11067;DHT22;29763;50.904;5.530;2023-02-20T04:13:46;5.70;99.90
11067;DHT22;29763;50.904;5.530;2023-02-20T04:16:13;5.70;99.90
11067;DHT22;29763;50.904;5.530;2023-02-20T04:18:40;5.70;99.90
11067;DHT22;29763;50.904;5.530;2023-02-20T04:24:12;5.70;99.90
11067;DHT22;29763;50.904;5.530;2023-02-20T04:26:40;5.80;99.90
11067;DHT22;29763;50.904;5.530;2023-02-20T04:29:08;5.70;99.90
11067;DHT22;29763;50.904;5.530;2023-02-20T04:31:34;5.70;99.90
11067;DHT22;29763;50.904;5.530;2023-02-20T04:34:00;5.70;99.90
11067;DHT22;29763;50.904;5.530;2023-02-20T04:36:26;5.70;99.90
11067;DHT22;29763;50.904;5.530;2023-02-20T04:38:52;5.70;99.90
11067;DHT22;29763;50.904;5.530;2023-02-20T04:41:18;5.70;99.90
11067;DHT22;29763;50.904;5.530;2023-02-20T04:43:44;5.70;99.90
11067;DHT22;29763;50.904;5.530;2023-02-20T04:46:12;5.70;99.90
11067;DHT22;29763;50.904;5.530;2023-02-20T04:48:38;5.70;99.90
11067;DHT22;29763;50.904;5.530;2023-02-20T04:51:03;5.70;99.90
11067;DHT22;29763;50.904;5.530;2023-02-20T04:53:30;5.80;99.90
11067;DHT22;29763;50.904;5.530;2023-02-20T04:55:56;5.70;99.90
11067;DHT22;29763;50.904;5.530;2023-02-20T04:58:22;5.80;99.90
11067;DHT22;29763;50.904;5.530;2023-02-20T05:00:49;5.80;99.90
11067;DHT22;29763;50.904;5.530;2023-02-20T05:03:14;5.80;99.90
11067;DHT22;29763;50.904;5.530;2023-02-20T05:05:40;5.80;99.90
11067;DHT22;29763;50.904;5.530;2023-02-20T05:08:08;5.80;99.90
11067;DHT22;29763;50.904;5.530;2023-02-20T05:10:36;5.80;99.90
11067;DHT22;29763;50.904;5.530;2023-02-20T05:13:03;5.80;99.90
11067;DHT22;29763;50.904;5.530;2023-02-20T05:15:30;5.80;99.90
11067;DHT22;29763;50.904;5.530;2023-02-20T05:17:59;5.80;99.90
11067;DHT22;29763;50.904;5.530;2023-02-20T05:20:26;5.80;99.90
11067;DHT22;29763;50.904;5.530;2023-02-20T05:23:11;5.80;99.90
11067;DHT22;29763;50.904;5.530;2023-02-20T05:25:37;5.80;99.90
11067;DHT22;29763;50.904;5.530;2023-02-20T05:28:09;5.80;99.90
11067;DHT22;29763;50.904;5.530;2023-02-20T05:30:34;5.80;99.90
11067;DHT22;29763;50.904;5.530;2023-02-20T05:33:00;5.80;99.90
11067;DHT22;29763;50.904;5.530;2023-02-20T05:35:26;5.80;99.90
11067;DHT22;29763;50.904;5.530;2023-02-20T05:37:51;5.90;99.90
11067;DHT22;29763;50.904;5.530;2023-02-20T05:40:17;5.80;99.90
11067;DHT22;29763;50.904;5.530;2023-02-20T05:42:43;5.80;99.90
11067;DHT22;29763;50.904;5.530;2023-02-20T05:45:08;5.80;99.90
11067;DHT22;29763;50.904;5.530;2023-02-20T05:47:36;5.80;99.90
11067;DHT22;29763;50.904;5.530;2023-02-20T05:50:06;5.80;99.90
11067;DHT22;29763;50.904;5.530;2023-02-20T05:52:32;5.80;99.90
11067;DHT22;29763;50.904;5.530;2023-02-20T05:55:00;5.80;99.90
11067;DHT22;29763;50.904;5.530;2023-02-20T05:57:27;5.90;99.90
11067;DHT22;29763;50.904;5.530;2023-02-20T05:59:53;5.90;99.90
11067;DHT22;29763;50.904;5.530;2023-02-20T06:02:19;5.90;99.90
11067;DHT22;29763;50.904;5.530;2023-02-20T06:04:44;5.90;99.90
11067;DHT22;29763;50.904;5.530;2023-02-20T06:07:10;5.90;99.90
11067;DHT22;29763;50.904;5.530;2023-02-20T06:09:36;5.90;99.90
11067;DHT22;29763;50.904;5.530;2023-02-20T06:12:03;5.90;99.90
11067;DHT22;29763;50.904;5.530;2023-02-20T06:14:30;6.00;99.90
11067;DHT22;29763;50.904;5.530;2023-02-20T06:16:56;5.90;99.90
11067;DHT22;29763;50.904;5.530;2023-02-20T06:19:23;5.90;99.90
11067;DHT22;29763;50.904;5.530;2023-02-20T06:21:51;6.00;99.90
11067;DHT22;29763;50.904;5.530;2023-02-20T06:24:19;6.00;99.90
11067;DHT22;29763;50.904;5.530;2023-02-20T06:26:46;5.90;99.90
11067;DHT22;29763;50.904;5.530;2023-02-20T06:29:13;6.00;99.90
11067;DHT22;29763;50.904;5.530;2023-02-20T06:31:40;6.00;99.90
11067;DHT22;29763;50.904;5.530;2023-02-20T06:34:12;6.20;99.90
11067;DHT22;29763;50.904;5.530;2023-02-20T06:36:45;6.30;99.90
11067;DHT22;29763;50.904;5.530;2023-02-20T06:39:12;6.20;99.90
11067;DHT22;29763;50.904;5.530;2023-02-20T06:41:38;6.00;99.90
11067;DHT22;29763;50.904;5.530;2023-02-20T06:44:05;6.00;99.90
11067;DHT22;29763;50.904;5.530;2023-02-20T06:46:30;6.00;99.90
11067;DHT22;29763;50.904;5.530;2023-02-20T06:48:57;5.90;99.90
11067;DHT22;29763;50.904;5.530;2023-02-20T06:51:27;5.90;99.90
11067;DHT22;29763;50.904;5.530;2023-02-20T06:53:55;5.90;99.90
11067;DHT22;29763;50.904;5.530;2023-02-20T06:56:23;5.90;99.90
11067;DHT22;29763;50.904;5.530;2023-02-20T06:58:50;5.80;99.90
11067;DHT22;29763;50.904;5.530;2023-02-20T07:01:18;5.90;99.90
11067;DHT22;29763;50.904;5.530;2023-02-20T07:03:46;5.90;99.90
11067;DHT22;29763;50.904;5.530;2023-02-20T07:06:14;5.90;99.90
11067;DHT22;29763;50.904;5.530;2023-02-20T07:08:40;5.90;99.90
11067;DHT22;29763;50.904;5.530;2023-02-20T07:11:06;5.90;99.90
11067;DHT22;29763;50.904;5.530;2023-02-20T07:13:31;5.90;99.90
11067;DHT22;29763;50.904;5.530;2023-02-20T07:15:58;5.90;99.90
11067;DHT22;29763;50.904;5.530;2023-02-20T07:18:23;5.90;99.90
11067;DHT22;29763;50.904;5.530;2023-02-20T07:20:53;6.00;99.90
11067;DHT22;29763;50.904;5.530;2023-02-20T07:23:20;6.00;99.90
11067;DHT22;29763;50.904;5.530;2023-02-20T07:25:46;6.00;99.90
11067;DHT22;29763;50.904;5.530;2023-02-20T07:28:15;6.00;99.90
11067;DHT22;29763;50.904;5.530;2023-02-20T07:30:42;6.00;99.90
11067;DHT22;29763;50.904;5.530;2023-02-20T07:33:09;6.10;99.90
11067;DHT22;29763;50.904;5.530;2023-02-20T07:35:34;6.10;99.90
11067;DHT22;29763;50.904;5.530;2023-02-20T07:38:03;6.10;99.90
11067;DHT22;29763;50.904;5.530;2023-02-20T07:40:30;6.10;99.90
11067;DHT22;29763;50.904;5.530;2023-02-20T07:42:55;6.10;99.90
11067;DHT22;29763;50.904;5.530;2023-02-20T07:45:21;6.20;99.90
11067;DHT22;29763;50.904;5.530;2023-02-20T07:47:48;6.20;99.90
11067;DHT22;29763;50.904;5.530;2023-02-20T07:50:15;6.20;99.90
11067;DHT22;29763;50.904;5.530;2023-02-20T07:52:41;6.20;99.90
11067;DHT22;29763;50.904;5.530;2023-02-20T07:55:07;6.20;99.90
11067;DHT22;29763;50.904;5.530;2023-02-20T07:57:35;6.20;99.90
11067;DHT22;29763;50.904;5.530;2023-02-20T08:00:01;6.20;99.90
11067;DHT22;29763;50.904;5.530;2023-02-20T08:02:27;6.30;99.90
11067;DHT22;29763;50.904;5.530;2023-02-20T08:04:53;6.30;99.90
11067;DHT22;29763;50.904;5.530;2023-02-20T08:07:19;6.40;99.90
11067;DHT22;29763;50.904;5.530;2023-02-20T08:09:48;6.40;99.90
11067;DHT22;29763;50.904;5.530;2023-02-20T08:12:14;6.40;99.90
11067;DHT22;29763;50.904;5.530;2023-02-20T08:14:40;6.40;99.90
11067;DHT22;29763;50.904;5.530;2023-02-20T08:17:06;6.50;99.90
11067;DHT22;29763;50.904;5.530;2023-02-20T08:19:32;6.50;99.90
11067;DHT22;29763;50.904;5.530;2023-02-20T08:21:57;6.50;99.90
11067;DHT22;29763;50.904;5.530;2023-02-20T08:24:23;6.50;99.90
11067;DHT22;29763;50.904;5.530;2023-02-20T08:26:49;6.50;99.90
11067;DHT22;29763;50.904;5.530;2023-02-20T08:29:17;6.60;99.90
11067;DHT22;29763;50.904;5.530;2023-02-20T08:31:43;6.60;99.90
11067;DHT22;29763;50.904;5.530;2023-02-20T08:34:08;6.60;99.90
11067;DHT22;29763;50.904;5.530;2023-02-20T08:36:34;6.70;99.90
11067;DHT22;29763;50.904;5.530;2023-02-20T08:39:00;6.70;99.90
11067;DHT22;29763;50.904;5.530;2023-02-20T08:41:27;6.80;99.90
11067;DHT22;29763;50.904;5.530;2023-02-20T08:43:55;6.80;99.90
11067;DHT22;29763;50.904;5.530;2023-02-20T08:46:26;6.80;99.90
11067;DHT22;29763;50.904;5.530;2023-02-20T08:48:52;6.80;99.90
11067;DHT22;29763;50.904;5.530;2023-02-20T08:51:23;6.80;99.90
11067;DHT22;29763;50.904;5.530;2023-02-20T08:53:52;6.80;99.90
11067;DHT22;29763;50.904;5.530;2023-02-20T08:56:19;6.80;99.90
11067;DHT22;29763;50.904;5.530;2023-02-20T08:58:47;6.90;99.90
11067;DHT22;29763;50.904;5.530;2023-02-20T09:01:12;7.00;99.90
11067;DHT22;29763;50.904;5.530;2023-02-20T09:03:38;7.00;99.90
11067;DHT22;29763;50.904;5.530;2023-02-20T09:06:07;7.00;99.90
11067;DHT22;29763;50.904;5.530;2023-02-20T09:08:33;7.00;99.90
11067;DHT22;29763;50.904;5.530;2023-02-20T09:10:59;7.00;99.90
11067;DHT22;29763;50.904;5.530;2023-02-20T09:13:24;7.00;99.90
11067;DHT22;29763;50.904;5.530;2023-02-20T09:15:50;7.00;99.90
11067;DHT22;29763;50.904;5.530;2023-02-20T09:18:16;7.10;99.90
11067;DHT22;29763;50.904;5.530;2023-02-20T09:20:42;7.10;99.90
11067;DHT22;29763;50.904;5.530;2023-02-20T09:23:08;7.10;99.90
11067;DHT22;29763;50.904;5.530;2023-02-20T09:25:34;7.20;99.90
11067;DHT22;29763;50.904;5.530;2023-02-20T09:28:01;7.20;99.90
11067;DHT22;29763;50.904;5.530;2023-02-20T09:30:27;7.30;99.90
11067;DHT22;29763;50.904;5.530;2023-02-20T09:32:54;7.40;99.90
11067;DHT22;29763;50.904;5.530;2023-02-20T09:35:23;7.40;99.90
11067;DHT22;29763;50.904;5.530;2023-02-20T09:37:50;7.50;99.90
11067;DHT22;29763;50.904;5.530;2023-02-20T09:40:16;7.50;99.90
11067;DHT22;29763;50.904;5.530;2023-02-20T09:45:20;7.60;99.90
11067;DHT22;29763;50.904;5.530;2023-02-20T09:56:15;7.70;99.90
11067;DHT22;29763;50.904;5.530;2023-02-20T10:01:27;7.70;99.90
11067;DHT22;29763;50.904;5.530;2023-02-20T10:06:39;7.70;99.90
11067;DHT22;29763;50.904;5.530;2023-02-20T10:09:12;7.70;99.90
11067;DHT22;29763;50.904;5.530;2023-02-20T10:25:50;7.90;99.90
11067;DHT22;29763;50.904;5.530;2023-02-20T10:28:19;7.90;99.90
11067;DHT22;29763;50.904;5.530;2023-02-20T10:34:22;8.00;99.90
11067;DHT22;29763;50.904;5.530;2023-02-20T10:36:54;8.00;99.90
11067;DHT22;29763;50.904;5.530;2023-02-20T10:39:22;8.10;99.90
11067;DHT22;29763;50.904;5.530;2023-02-20T10:41:50;8.10;99.90
11067;DHT22;29763;50.904;5.530;2023-02-20T10:46:48;8.20;99.90
11067;DHT22;29763;50.904;5.530;2023-02-20T10:49:20;8.10;99.90
11067;DHT22;29763;50.904;5.530;2023-02-20T10:51:51;8.10;99.90
11067;DHT22;29763;50.904;5.530;2023-02-20T10:54:39;8.10;99.90
11067;DHT22;29763;50.904;5.530;2023-02-20T10:59:52;8.10;99.90
11067;DHT22;29763;50.904;5.530;2023-02-20T11:02:26;8.10;99.90
11067;DHT22;29763;50.904;5.530;2023-02-20T11:05:02;8.10;99.90
11067;DHT22;29763;50.904;5.530;2023-02-20T11:07:30;8.10;99.90
11067;DHT22;29763;50.904;5.530;2023-02-20T11:09:56;8.10;99.90
11067;DHT22;29763;50.904;5.530;2023-02-20T11:15:08;8.10;99.90
11067;DHT22;29763;50.904;5.530;2023-02-20T11:17:38;8.20;99.90
11067;DHT22;29763;50.904;5.530;2023-02-20T11:20:05;8.20;99.90
11067;DHT22;29763;50.904;5.530;2023-02-20T11:22:47;8.20;99.90
11067;DHT22;29763;50.904;5.530;2023-02-20T11:25:18;8.30;99.90
11067;DHT22;29763;50.904;5.530;2023-02-20T11:27:56;8.30;99.90
11067;DHT22;29763;50.904;5.530;2023-02-20T11:30:34;8.30;99.90
11067;DHT22;29763;50.904;5.530;2023-02-20T11:33:05;8.30;99.90
11067;DHT22;29763;50.904;5.530;2023-02-20T11:35:44;8.30;99.90
11067;DHT22;29763;50.904;5.530;2023-02-20T11:38:32;8.30;99.90
11067;DHT22;29763;50.904;5.530;2023-02-20T11:43:30;8.50;99.90
11067;DHT22;29763;50.904;5.530;2023-02-20T11:49:06;8.50;99.90
11067;DHT22;29763;50.904;5.530;2023-02-20T11:51:38;8.60;99.90
11067;DHT22;29763;50.904;5.530;2023-02-20T11:54:24;8.50;99.90
11067;DHT22;29763;50.904;5.530;2023-02-20T12:00:54;8.40;99.90
11067;DHT22;29763;50.904;5.530;2023-02-20T12:03:22;8.30;99.90
11067;DHT22;29763;50.904;5.530;2023-02-20T12:05:48;8.30;99.90
11067;DHT22;29763;50.904;5.530;2023-02-20T12:08:35;8.30;99.90
11067;DHT22;29763;50.904;5.530;2023-02-20T12:11:07;8.30;99.90
11067;DHT22;29763;50.904;5.530;2023-02-20T12:13:44;8.20;99.90
11067;DHT22;29763;50.904;5.530;2023-02-20T12:19:02;8.20;99.90
11067;DHT22;29763;50.904;5.530;2023-02-20T12:32:46;8.30;99.90
11067;DHT22;29763;50.904;5.530;2023-02-20T12:55:01;8.40;99.90
11067;DHT22;29763;50.904;5.530;2023-02-20T13:00:57;8.50;99.90
11067;DHT22;29763;50.904;5.530;2023-02-20T13:03:58;8.60;99.90
11067;DHT22;29763;50.904;5.530;2023-02-20T13:06:29;8.60;99.90
11067;DHT22;29763;50.904;5.530;2023-02-20T13:11:50;8.70;99.90
11067;DHT22;29763;50.904;5.530;2023-02-20T13:14:47;8.60;99.90
11067;DHT22;29763;50.904;5.530;2023-02-20T13:20:18;8.70;99.90
11067;DHT22;29763;50.904;5.530;2023-02-20T13:23:25;8.80;99.90
11067;DHT22;29763;50.904;5.530;2023-02-20T13:25:50;8.80;99.90
11067;DHT22;29763;50.904;5.530;2023-02-20T13:28:48;8.80;99.90
11067;DHT22;29763;50.904;5.530;2023-02-20T13:31:15;8.80;99.90
11067;DHT22;29763;50.904;5.530;2023-02-20T13:33:50;8.90;99.90
11067;DHT22;29763;50.904;5.530;2023-02-20T13:44:43;8.80;99.90
11067;DHT22;29763;50.904;5.530;2023-02-20T13:50:00;8.90;99.90
11067;DHT22;29763;50.904;5.530;2023-02-20T13:55:24;8.90;99.90
11067;DHT22;29763;50.904;5.530;2023-02-20T13:58:01;8.90;99.90
11067;DHT22;29763;50.904;5.530;2023-02-20T14:00:44;9.00;99.90
11067;DHT22;29763;50.904;5.530;2023-02-20T14:03:21;9.00;99.90
11067;DHT22;29763;50.904;5.530;2023-02-20T14:06:01;9.00;99.90
11067;DHT22;29763;50.904;5.530;2023-02-20T14:08:27;9.00;99.90
11067;DHT22;29763;50.904;5.530;2023-02-20T14:10:53;9.00;99.90
11067;DHT22;29763;50.904;5.530;2023-02-20T14:13:22;9.00;99.90
11067;DHT22;29763;50.904;5.530;2023-02-20T14:15:55;9.00;99.90
11067;DHT22;29763;50.904;5.530;2023-02-20T14:18:31;9.00;99.90
11067;DHT22;29763;50.904;5.530;2023-02-20T14:21:17;8.90;99.90
11067;DHT22;29763;50.904;5.530;2023-02-20T14:23:48;8.90;99.90
11067;DHT22;29763;50.904;5.530;2023-02-20T14:26:29;8.90;99.90
11067;DHT22;29763;50.904;5.530;2023-02-20T14:28:57;8.90;99.90
11067;DHT22;29763;50.904;5.530;2023-02-20T14:31:42;8.90;99.90
11067;DHT22;29763;50.904;5.530;2023-02-20T14:34:15;8.80;99.90
11067;DHT22;29763;50.904;5.530;2023-02-20T14:42:14;8.90;99.90
11067;DHT22;29763;50.904;5.530;2023-02-20T14:44:41;8.90;99.90
11067;DHT22;29763;50.904;5.530;2023-02-20T14:47:12;8.90;99.90
11067;DHT22;29763;50.904;5.530;2023-02-20T14:49:45;9.00;99.90
11067;DHT22;29763;50.904;5.530;2023-02-20T14:52:23;9.00;99.90
11067;DHT22;29763;50.904;5.530;2023-02-20T14:55:03;9.00;99.90
11067;DHT22;29763;50.904;5.530;2023-02-20T14:57:31;9.10;99.90
11067;DHT22;29763;50.904;5.530;2023-02-20T15:02:40;9.00;99.90
11067;DHT22;29763;50.904;5.530;2023-02-20T15:05:09;9.10;99.90
11067;DHT22;29763;50.904;5.530;2023-02-20T15:07:38;9.10;99.90
11067;DHT22;29763;50.904;5.530;2023-02-20T15:10:54;9.00;99.90
11067;DHT22;29763;50.904;5.530;2023-02-20T15:12:59;9.00;99.90
11067;DHT22;29763;50.904;5.530;2023-02-20T15:15:34;9.10;99.90
11067;DHT22;29763;50.904;5.530;2023-02-20T15:18:10;9.00;99.90
11067;DHT22;29763;50.904;5.530;2023-02-20T15:20:41;9.00;99.90
11067;DHT22;29763;50.904;5.530;2023-02-20T15:25:58;9.00;99.90
11067;DHT22;29763;50.904;5.530;2023-02-20T15:28:31;9.00;99.90
11067;DHT22;29763;50.904;5.530;2023-02-20T15:33:40;9.00;99.90
11067;DHT22;29763;50.904;5.530;2023-02-20T15:36:11;9.00;99.90
11067;DHT22;29763;50.904;5.530;2023-02-20T15:38:37;9.00;99.90
11067;DHT22;29763;50.904;5.530;2023-02-20T15:41:04;9.00;99.90
11067;DHT22;29763;50.904;5.530;2023-02-20T15:43:32;9.00;99.90
11067;DHT22;29763;50.904;5.530;2023-02-20T15:45:58;9.00;99.90
11067;DHT22;29763;50.904;5.530;2023-02-20T15:48:24;9.00;99.90
11067;DHT22;29763;50.904;5.530;2023-02-20T15:50:50;9.00;99.90
11067;DHT22;29763;50.904;5.530;2023-02-20T15:53:21;9.00;99.90
11067;DHT22;29763;50.904;5.530;2023-02-20T15:55:50;9.00;99.90
11067;DHT22;29763;50.904;5.530;2023-02-20T15:58:37;8.90;99.90
11067;DHT22;29763;50.904;5.530;2023-02-20T16:01:04;8.90;99.90
11067;DHT22;29763;50.904;5.530;2023-02-20T16:03:32;8.90;99.90
11067;DHT22;29763;50.904;5.530;2023-02-20T16:05:59;8.90;99.90
11067;DHT22;29763;50.904;5.530;2023-02-20T16:08:27;8.90;99.90
11067;DHT22;29763;50.904;5.530;2023-02-20T16:10:53;8.90;99.90
11067;DHT22;29763;50.904;5.530;2023-02-20T16:13:30;8.80;99.90
11067;DHT22;29763;50.904;5.530;2023-02-20T16:15:56;8.90;99.90
11067;DHT22;29763;50.904;5.530;2023-02-20T16:18:23;8.80;99.90
11067;DHT22;29763;50.904;5.530;2023-02-20T16:20:51;8.80;99.90
11067;DHT22;29763;50.904;5.530;2023-02-20T16:23:16;8.80;99.90
11067;DHT22;29763;50.904;5.530;2023-02-20T16:25:43;8.80;99.90
11067;DHT22;29763;50.904;5.530;2023-02-20T16:28:10;8.80;99.90
11067;DHT22;29763;50.904;5.530;2023-02-20T16:30:40;8.80;99.90
11067;DHT22;29763;50.904;5.530;2023-02-20T16:33:18;8.80;99.90
11067;DHT22;29763;50.904;5.530;2023-02-20T16:35:46;8.80;99.90
11067;DHT22;29763;50.904;5.530;2023-02-20T16:38:12;8.80;99.90
11067;DHT22;29763;50.904;5.530;2023-02-20T16:40:38;8.70;99.90
11067;DHT22;29763;50.904;5.530;2023-02-20T16:43:05;8.70;99.90
11067;DHT22;29763;50.904;5.530;2023-02-20T16:45:31;8.70;99.90
11067;DHT22;29763;50.904;5.530;2023-02-20T16:47:58;8.80;99.90
11067;DHT22;29763;50.904;5.530;2023-02-20T16:50:31;8.70;99.90
11067;DHT22;29763;50.904;5.530;2023-02-20T16:52:59;8.70;99.90
11067;DHT22;29763;50.904;5.530;2023-02-20T16:55:39;8.80;99.90
11067;DHT22;29763;50.904;5.530;2023-02-20T16:58:09;8.80;99.90
11067;DHT22;29763;50.904;5.530;2023-02-20T17:00:38;8.80;99.90
11067;DHT22;29763;50.904;5.530;2023-02-20T17:03:08;8.80;99.90
11067;DHT22;29763;50.904;5.530;2023-02-20T17:05:41;8.80;99.90
11067;DHT22;29763;50.904;5.530;2023-02-20T17:08:08;8.80;99.90
11067;DHT22;29763;50.904;5.530;2023-02-20T17:10:54;8.80;99.90
11067;DHT22;29763;50.904;5.530;2023-02-20T17:13:22;8.80;99.90
11067;DHT22;29763;50.904;5.530;2023-02-20T17:15:49;8.80;99.90
11067;DHT22;29763;50.904;5.530;2023-02-20T17:18:16;8.70;99.90
11067;DHT22;29763;50.904;5.530;2023-02-20T17:20:42;8.70;99.90
11067;DHT22;29763;50.904;5.530;2023-02-20T17:23:08;8.70;99.90
11067;DHT22;29763;50.904;5.530;2023-02-20T17:25:34;8.70;99.90
11067;DHT22;29763;50.904;5.530;2023-02-20T17:28:01;8.80;99.90
11067;DHT22;29763;50.904;5.530;2023-02-20T17:30:27;8.80;99.90
11067;DHT22;29763;50.904;5.530;2023-02-20T17:32:53;8.70;99.90
11067;DHT22;29763;50.904;5.530;2023-02-20T17:35:19;8.70;99.90
11067;DHT22;29763;50.904;5.530;2023-02-20T17:37:44;8.70;99.90
11067;DHT22;29763;50.904;5.530;2023-02-20T17:40:14;8.70;99.90
11067;DHT22;29763;50.904;5.530;2023-02-20T17:42:40;8.70;99.90
11067;DHT22;29763;50.904;5.530;2023-02-20T17:45:07;8.70;99.90
11067;DHT22;29763;50.904;5.530;2023-02-20T17:47:35;8.70;99.90
11067;DHT22;29763;50.904;5.530;2023-02-20T17:50:02;8.60;99.90
11067;DHT22;29763;50.904;5.530;2023-02-20T17:52:29;8.70;99.90
11067;DHT22;29763;50.904;5.530;2023-02-20T17:54:59;8.70;99.90
11067;DHT22;29763;50.904;5.530;2023-02-20T17:57:30;8.70;99.90
11067;DHT22;29763;50.904;5.530;2023-02-20T17:59:57;8.70;99.90
11067;DHT22;29763;50.904;5.530;2023-02-20T18:02:24;8.70;99.90
11067;DHT22;29763;50.904;5.530;2023-02-20T18:04:51;8.70;99.90
11067;DHT22;29763;50.904;5.530;2023-02-20T18:07:21;8.70;99.90
11067;DHT22;29763;50.904;5.530;2023-02-20T18:09:47;8.70;99.90
11067;DHT22;29763;50.904;5.530;2023-02-20T18:12:13;8.60;99.90
11067;DHT22;29763;50.904;5.530;2023-02-20T18:14:40;8.60;99.90
11067;DHT22;29763;50.904;5.530;2023-02-20T18:17:06;8.60;99.90
11067;DHT22;29763;50.904;5.530;2023-02-20T18:19:32;8.60;99.90
11067;DHT22;29763;50.904;5.530;2023-02-20T18:21:59;8.60;99.90
11067;DHT22;29763;50.904;5.530;2023-02-20T18:24:25;8.50;99.90
11067;DHT22;29763;50.904;5.530;2023-02-20T18:26:52;8.60;99.90
11067;DHT22;29763;50.904;5.530;2023-02-20T18:29:18;8.50;99.90
11067;DHT22;29763;50.904;5.530;2023-02-20T18:31:46;8.60;99.90
11067;DHT22;29763;50.904;5.530;2023-02-20T18:34:12;8.60;99.90
11067;DHT22;29763;50.904;5.530;2023-02-20T18:36:39;8.60;99.90
11067;DHT22;29763;50.904;5.530;2023-02-20T18:39:06;8.60;99.90